Pays
Station

 

Conditions  météo  pour  Fort Pierce, St. Lucie County International Airport  -  Etats-Unis    Etats-Unis

  
33 °C
    
 
 

METAR pour Fort Pierce, St. Lucie County International Airport :

KFPR 231753Z 19008KT 170V230 10SM FEW045 33/21 A2996 RMK AO2 SLP143 T03280211 10333 20239 58014

 

Voici le bulletin pour Fort Pierce, St. Lucie County International Airport - Etats-Unis.
 
Le bulletin a été fait il y a 5 minutes, à 17:53 UTC .
Le vent soufflait à la vitesse de 4.1 mètres par seconde de Sud (190°), variant entre Sud (170°) et Sud-ouest (230°).
 
La température était de 33 °C, avec un point de rosée à 21 °C.
La température ressentie était de 36 °C.
 
La pression atmosphérique était de 1015 hPa.
L'humidité relative était de 49.4%.
 
Il y avait 1 à 2/8ème de nébulosité à une hauteur de 1372 mètres.
 
La visibilité globale était de 16.1 kilomètres.
 

 
 
 

Pays :   A   B   C   D   E   F   G   H   I   J   K   L   M   N   O   P   Q   R   S   T   U   V   W   Y   Z

 

Partenaires :  Info Météo avec Met'info
Météo Marine avec MeteoMarine.net
Infos Site  |  Infos Légales  |  Crédits  |  Confidentialité
Contactez-nous  |  Ajouter aux favoris
© 2013-2019 METAR - Tous droits réservés